Aviation Digital Data Service (ADDS)

Output produced by METARs form (1037 UTC 30 March 2015)
found at http://aviationweather.gov/adds/metars/
 
KLBE 301021Z 3010/3106 19007KT 4SM -DZ BR SCT008 OVC015 
     TEMPO 3010/3012 1 3/4SM -RA BR BKN008 
     FM301200 25012G22KT P6SM BKN025 
     FM301400 27012G22KT P6SM BKN035 
     FM310000 26005KT P6SM BKN050